createdAt,value
2023-01-29T00:01:28.326Z,102904.75
2023-01-29T00:03:56.568Z,102896.28
2023-01-29T00:06:24.085Z,102903.38
2023-01-29T00:08:52.019Z,102898.50
2023-01-29T00:11:20.425Z,102914.00
2023-01-29T00:13:48.269Z,102907.06
2023-01-29T00:16:15.380Z,102902.28
2023-01-29T00:18:42.395Z,102892.59
2023-01-29T00:21:13.687Z,102898.72
2023-01-29T00:23:40.988Z,102891.81
2023-01-29T00:26:08.540Z,102893.59
2023-01-29T00:28:36.400Z,102891.41
2023-01-29T00:31:13.562Z,102888.47
2023-01-29T00:33:40.494Z,102890.28
2023-01-29T00:36:09.614Z,102885.38
2023-01-29T00:38:37.187Z,102880.25
2023-01-29T00:41:28.373Z,102885.16
2023-01-29T00:44:14.379Z,102886.44
2023-01-29T00:46:42.043Z,102884.91
2023-01-29T00:49:09.215Z,102883.00
2023-01-29T00:51:37.869Z,102889.16
2023-01-29T00:54:06.739Z,102889.81
2023-01-29T00:56:35.670Z,102889.00
2023-01-29T00:59:03.668Z,102893.38
2023-01-29T01:01:49.596Z,102884.03
2023-01-29T01:04:16.674Z,102887.13
2023-01-29T01:06:44.022Z,102896.47
2023-01-29T01:09:29.437Z,102897.25
2023-01-29T01:11:56.112Z,102886.00
2023-01-29T01:14:23.942Z,102887.34
2023-01-29T01:16:50.725Z,102888.34
2023-01-29T01:19:17.768Z,102888.25
2023-01-29T01:21:47.091Z,102886.00
2023-01-29T01:24:14.541Z,102874.53
2023-01-29T01:26:41.567Z,102863.28
2023-01-29T01:29:09.049Z,102856.84
2023-01-29T01:31:35.927Z,102844.28
2023-01-29T01:34:03.198Z,102848.16
2023-01-29T01:36:31.484Z,102845.69
2023-01-29T01:38:58.807Z,102851.03
2023-01-29T01:41:25.788Z,102852.56
2023-01-29T01:44:00.102Z,102839.25
2023-01-29T01:46:31.719Z,102842.16
2023-01-29T01:49:02.948Z,102847.59
2023-01-29T01:51:32.378Z,102848.38
2023-01-29T01:54:11.653Z,102853.03
2023-01-29T01:56:43.044Z,102858.16
2023-01-29T01:59:11.857Z,102861.59
2023-01-29T02:01:42.830Z,102858.16
2023-01-29T02:04:31.919Z,102856.81
2023-01-29T02:07:19.572Z,102861.28
2023-01-29T02:09:52.900Z,102866.41
2023-01-29T02:12:20.289Z,102864.38
2023-01-29T02:14:48.794Z,102875.06
2023-01-29T02:17:17.292Z,102871.75
2023-01-29T02:19:53.405Z,102877.75
2023-01-29T02:22:29.735Z,102883.13
2023-01-29T02:25:09.961Z,102882.53
2023-01-29T02:27:49.248Z,102879.09
2023-01-29T02:30:23.899Z,102884.22
2023-01-29T02:33:00.685Z,102876.66
2023-01-29T02:35:28.787Z,102876.88
2023-01-29T02:38:12.301Z,102883.34
2023-01-29T02:40:44.108Z,102870.41
2023-01-29T02:43:20.271Z,102867.53
2023-01-29T02:45:49.132Z,102865.75
2023-01-29T02:48:20.701Z,102860.53
2023-01-29T02:50:48.343Z,102870.63
2023-01-29T02:53:35.571Z,102855.50
2023-01-29T02:56:02.976Z,102852.56
2023-01-29T02:58:38.429Z,102848.13
2023-01-29T03:01:15.510Z,102857.59
2023-01-29T03:03:45.558Z,102855.94
2023-01-29T03:06:20.275Z,102869.03
2023-01-29T03:08:50.775Z,102865.72
2023-01-29T03:11:20.281Z,102873.06
2023-01-29T03:13:59.983Z,102871.06
2023-01-29T03:16:36.102Z,102873.94
2023-01-29T03:19:06.441Z,102875.16
2023-01-29T03:21:54.626Z,102874.38
2023-01-29T03:24:54.016Z,102883.84
2023-01-29T03:27:41.880Z,102884.09
2023-01-29T03:30:29.343Z,102878.75
2023-01-29T03:32:59.139Z,102884.72
2023-01-29T03:35:39.499Z,102882.59
2023-01-29T03:38:12.476Z,102881.94
2023-01-29T03:40:44.141Z,102878.59
2023-01-29T03:43:14.910Z,102879.50
2023-01-29T03:45:50.938Z,102877.47
2023-01-29T03:48:32.134Z,102877.47
2023-01-29T03:51:15.544Z,102871.38
2023-01-29T03:53:53.507Z,102865.72
2023-01-29T03:56:38.775Z,102860.09
2023-01-29T03:59:19.674Z,102866.69
2023-01-29T04:01:49.805Z,102872.56
2023-01-29T04:04:33.035Z,102868.13
2023-01-29T04:07:10.701Z,102862.09
2023-01-29T04:09:43.791Z,102857.31
2023-01-29T04:12:13.998Z,102853.75
2023-01-29T04:14:41.488Z,102847.88
2023-01-29T04:17:20.592Z,102836.31
2023-01-29T04:19:48.423Z,102831.44
2023-01-29T04:22:15.213Z,102822.31
2023-01-29T04:24:42.780Z,102826.75
2023-01-29T04:27:20.849Z,102819.97
2023-01-29T04:29:56.432Z,102814.19
2023-01-29T04:32:31.327Z,102820.78
2023-01-29T04:35:05.620Z,102824.13
2023-01-29T04:37:38.174Z,102836.91
2023-01-29T04:40:17.705Z,102839.03
2023-01-29T04:42:49.421Z,102829.91
2023-01-29T04:45:28.696Z,102821.91
2023-01-29T04:48:22.163Z,102811.91
2023-01-29T04:51:11.259Z,102807.91
2023-01-29T04:53:48.791Z,102815.69
2023-01-29T04:56:31.460Z,102812.31
2023-01-29T04:59:02.040Z,102812.00
2023-01-29T05:01:33.184Z,102805.56
2023-01-29T05:04:02.277Z,102810.56
2023-01-29T05:06:30.521Z,102796.31
2023-01-29T05:08:57.796Z,102807.75
2023-01-29T05:11:24.799Z,102810.22
2023-01-29T05:13:52.393Z,102793.97
2023-01-29T05:16:22.530Z,102787.19
2023-01-29T05:18:49.805Z,102790.31
2023-01-29T05:21:16.787Z,102779.63
2023-01-29T05:23:58.917Z,102777.63
2023-01-29T05:26:46.059Z,102768.06
2023-01-29T05:29:12.788Z,102768.50
2023-01-29T05:31:39.895Z,102776.94
2023-01-29T05:34:06.461Z,102768.06
2023-01-29T05:36:33.529Z,102766.25
2023-01-29T05:39:00.105Z,102764.25
2023-01-29T05:41:26.908Z,102761.13
2023-01-29T05:43:53.573Z,102767.59
2023-01-29T05:46:20.665Z,102772.94
2023-01-29T05:48:47.330Z,102771.16
2023-01-29T05:51:14.260Z,102775.84
2023-01-29T05:53:41.086Z,102776.59
2023-01-29T05:56:08.015Z,102781.19
2023-01-29T05:58:35.066Z,102788.09
2023-01-29T06:01:16.123Z,102787.88
2023-01-29T06:03:43.121Z,102798.31
2023-01-29T06:06:10.214Z,102798.31
2023-01-29T06:08:37.976Z,102803.66
2023-01-29T06:11:07.873Z,102808.13
2023-01-29T06:13:34.840Z,102817.69
2023-01-29T06:16:04.412Z,102813.00
2023-01-29T06:18:31.105Z,102819.38
2023-01-29T06:21:00.810Z,102827.81
2023-01-29T06:23:27.706Z,102819.03
2023-01-29T06:25:54.458Z,102819.03
2023-01-29T06:28:21.024Z,102821.25
2023-01-29T06:30:47.774Z,102829.28
2023-01-29T06:33:14.628Z,102833.72
2023-01-29T06:35:41.306Z,102833.94
2023-01-29T06:38:08.621Z,102833.47
2023-01-29T06:40:35.184Z,102822.91
2023-01-29T06:43:02.701Z,102802.44
2023-01-29T06:45:29.876Z,102787.06
2023-01-29T06:47:58.788Z,102792.72
2023-01-29T06:50:26.590Z,102783.38
2023-01-29T06:52:53.371Z,102785.81
2023-01-29T06:55:20.260Z,102787.41
2023-01-29T06:57:46.920Z,102778.94
2023-01-29T07:00:15.454Z,102779.16
2023-01-29T07:02:42.554Z,102776.38
2023-01-29T07:05:09.319Z,102781.72
2023-01-29T07:07:36.952Z,102793.38
2023-01-29T07:10:04.609Z,102777.78
2023-01-29T07:12:31.673Z,102782.44
2023-01-29T07:14:58.720Z,102776.03
2023-01-29T07:17:25.485Z,102787.47
2023-01-29T07:19:52.391Z,102793.59
2023-01-29T07:22:19.154Z,102794.63
2023-01-29T07:24:46.255Z,102793.59
2023-01-29T07:27:13.125Z,102779.25
2023-01-29T07:29:39.968Z,102778.44
2023-01-29T07:32:07.883Z,102783.56
2023-01-29T07:34:35.320Z,102795.38
2023-01-29T07:37:02.007Z,102812.56
2023-01-29T07:39:28.863Z,102808.63
2023-01-29T07:41:55.619Z,102808.75
2023-01-29T07:44:22.423Z,102806.50
2023-01-29T07:46:49.549Z,102795.13
2023-01-29T07:49:16.605Z,102795.56
2023-01-29T07:51:43.416Z,102793.75
2023-01-29T07:54:10.056Z,102790.63
2023-01-29T07:56:37.261Z,102795.09
2023-01-29T07:59:04.056Z,102795.97
2023-01-29T08:01:30.929Z,102791.63
2023-01-29T08:03:58.450Z,102792.84
2023-01-29T08:06:25.078Z,102791.47
2023-01-29T08:08:53.160Z,102788.16
2023-01-29T08:11:19.836Z,102791.91
2023-01-29T08:13:47.179Z,102777.63
2023-01-29T08:16:14.169Z,102790.78
2023-01-29T08:18:44.137Z,102797.66
2023-01-29T08:21:13.011Z,102797.44
2023-01-29T08:23:40.698Z,102786.63
2023-01-29T08:26:08.051Z,102780.72
2023-01-29T08:28:36.054Z,102772.69
2023-01-29T08:31:03.450Z,102758.00
2023-01-29T08:33:38.756Z,102752.66
2023-01-29T08:36:07.685Z,102752.88
2023-01-29T08:38:34.785Z,102760.22
2023-01-29T08:41:01.465Z,102758.25
2023-01-29T08:43:28.373Z,102764.16
2023-01-29T08:45:55.221Z,102769.50
2023-01-29T08:48:22.038Z,102771.28
2023-01-29T08:50:48.704Z,102759.66
2023-01-29T08:53:15.844Z,102756.31
2023-01-29T08:55:43.100Z,102740.50
2023-01-29T08:58:11.389Z,102741.41
2023-01-29T09:00:38.950Z,102739.09
2023-01-29T09:03:07.766Z,102742.34
2023-01-29T09:05:35.656Z,102746.22
2023-01-29T09:08:02.708Z,102751.81
2023-01-29T09:10:29.429Z,102748.19
2023-01-29T09:12:56.147Z,102740.72
2023-01-29T09:15:23.495Z,102736.00
2023-01-29T09:17:50.913Z,102735.47
2023-01-29T09:20:19.456Z,102731.34
2023-01-29T09:22:46.933Z,102733.38
2023-01-29T09:25:14.008Z,102726.69
2023-01-29T09:27:41.174Z,102727.72
2023-01-29T09:30:08.910Z,102731.47
2023-01-29T09:35:23.548Z,102717.66
2023-01-29T09:37:51.219Z,102717.66
2023-01-29T09:40:33.676Z,102716.28
2023-01-29T09:43:13.314Z,102708.88
2023-01-29T09:45:45.588Z,102706.81
2023-01-29T09:48:13.353Z,102706.81
2023-01-29T09:50:48.319Z,102705.44
2023-01-29T09:53:16.359Z,102704.03
2023-01-29T09:55:51.312Z,102707.44
2023-01-29T09:58:29.234Z,102714.31
2023-01-29T10:01:00.341Z,102729.53
2023-01-29T10:03:36.341Z,102730.94
2023-01-29T10:06:03.370Z,102722.63
2023-01-29T10:08:53.536Z,102721.44
2023-01-29T10:11:27.691Z,102722.81
2023-01-29T10:14:00.660Z,102718.88
2023-01-29T10:16:37.343Z,102717.47
2023-01-29T10:19:07.585Z,102715.50
2023-01-29T10:21:52.882Z,102717.09
2023-01-29T10:24:58.335Z,102705.41
2023-01-29T10:27:32.077Z,102708.97
2023-01-29T10:30:00.686Z,102706.22
2023-01-29T10:32:29.258Z,102705.41
2023-01-29T10:35:02.764Z,102695.63
2023-01-29T10:37:39.479Z,102704.03
2023-01-29T10:40:17.179Z,102708.78
2023-01-29T10:42:50.018Z,102687.53
2023-01-29T10:45:22.454Z,102679.81
2023-01-29T10:47:59.715Z,102677.53
2023-01-29T10:50:45.509Z,102671.41
2023-01-29T10:53:20.491Z,102675.19
2023-01-29T10:56:05.760Z,102677.13
2023-01-29T10:58:46.786Z,102673.00
2023-01-29T11:01:14.001Z,102668.22
2023-01-29T11:03:40.829Z,102674.38
2023-01-29T11:06:37.842Z,102663.88
2023-01-29T11:09:09.746Z,102657.13
2023-01-29T11:11:50.471Z,102647.22
2023-01-29T11:14:28.405Z,102638.78
2023-01-29T11:16:55.812Z,102635.56
2023-01-29T11:19:40.941Z,102636.09
2023-01-29T11:22:15.484Z,102633.34
2023-01-29T11:24:42.480Z,102633.63
2023-01-29T11:27:20.745Z,102630.59
2023-01-29T11:29:49.775Z,102627.78
2023-01-29T11:32:28.692Z,102615.34
2023-01-29T11:34:57.303Z,102617.13
2023-01-29T11:37:31.399Z,102614.94
2023-01-29T11:39:58.274Z,102617.69
2023-01-29T11:42:27.270Z,102604.22
2023-01-29T11:44:54.808Z,102592.50
2023-01-29T11:47:26.177Z,102587.72
2023-01-29T11:49:54.402Z,102600.88
2023-01-29T11:52:23.159Z,102585.19
2023-01-29T11:54:56.372Z,102572.50
2023-01-29T11:57:23.229Z,102571.59
2023-01-29T11:59:51.632Z,102566.47
2023-01-29T12:02:18.801Z,102562.03
2023-01-29T12:04:46.653Z,102558.63
2023-01-29T12:07:16.540Z,102554.38
2023-01-29T12:09:50.639Z,102549.41
2023-01-29T12:12:29.055Z,102533.44
2023-01-29T12:15:04.199Z,102525.13
2023-01-29T12:17:34.366Z,102521.56
2023-01-29T12:20:07.085Z,102518.38
2023-01-29T12:22:44.465Z,102506.47
2023-01-29T12:25:20.675Z,102496.56
2023-01-29T12:27:53.404Z,102485.00
2023-01-29T12:30:25.988Z,102487.44
2023-01-29T12:33:02.209Z,102474.75
2023-01-29T12:35:38.414Z,102467.34
2023-01-29T12:38:08.085Z,102467.69
2023-01-29T12:40:41.248Z,102465.75
2023-01-29T12:43:13.288Z,102463.09
2023-01-29T12:45:42.151Z,102470.88
2023-01-29T12:48:13.685Z,102457.22
2023-01-29T12:50:41.020Z,102453.88
2023-01-29T12:53:23.954Z,102454.19
2023-01-29T12:55:55.466Z,102447.97
2023-01-29T12:58:24.744Z,102445.69
2023-01-29T13:00:54.606Z,102437.28
2023-01-29T13:03:25.237Z,102430.56
2023-01-29T13:05:52.540Z,102434.88
2023-01-29T13:08:24.818Z,102435.47
2023-01-29T13:10:53.939Z,102427.31
2023-01-29T13:13:39.973Z,102434.97
2023-01-29T13:16:10.228Z,102425.41
2023-01-29T13:18:36.884Z,102423.22
2023-01-29T13:21:04.321Z,102429.19
2023-01-29T13:23:37.095Z,102422.31
2023-01-29T13:26:05.754Z,102426.03
2023-01-29T13:28:32.729Z,102425.25
2023-01-29T13:31:23.180Z,102420.72
2023-01-29T13:34:13.058Z,102413.81
2023-01-29T13:36:44.841Z,102410.75
2023-01-29T13:39:29.458Z,102417.16
2023-01-29T13:41:57.620Z,102414.84
2023-01-29T13:44:28.824Z,102418.88
2023-01-29T13:46:58.917Z,102421.09
2023-01-29T13:49:34.772Z,102422.41
2023-01-29T13:52:34.753Z,102418.94
2023-01-29T13:55:09.459Z,102408.00
2023-01-29T13:57:45.213Z,102410.19
2023-01-29T14:00:21.768Z,102410.44
2023-01-29T14:03:11.814Z,102400.13
2023-01-29T14:05:54.980Z,102395.13
2023-01-29T14:08:40.613Z,102401.09
2023-01-29T14:11:14.990Z,102400.28
2023-01-29T14:13:43.827Z,102396.72
2023-01-29T14:16:10.742Z,102393.19
2023-01-29T14:18:48.967Z,102384.84
2023-01-29T14:21:16.209Z,102389.34
2023-01-29T14:23:57.233Z,102388.38
2023-01-29T14:26:29.827Z,102377.03
2023-01-29T14:29:33.939Z,102388.47
2023-01-29T14:32:19.351Z,102388.53
2023-01-29T14:34:49.116Z,102371.97
2023-01-29T14:37:16.238Z,102370.97
2023-01-29T14:39:50.991Z,102377.13
2023-01-29T14:42:21.350Z,102368.97
2023-01-29T14:44:56.968Z,102368.09
2023-01-29T14:47:32.603Z,102361.66
2023-01-29T14:50:01.823Z,102370.16
2023-01-29T14:52:43.028Z,102367.25
2023-01-29T14:55:19.130Z,102367.38
2023-01-29T14:57:46.155Z,102361.03
2023-01-29T15:00:34.816Z,102357.09
2023-01-29T15:03:03.829Z,102356.88
2023-01-29T15:05:32.847Z,102354.41
2023-01-29T15:08:02.704Z,102356.34
2023-01-29T15:10:29.551Z,102347.41
2023-01-29T15:13:11.745Z,102356.03
2023-01-29T15:15:52.082Z,102350.00
2023-01-29T15:18:28.959Z,102348.47
2023-01-29T15:21:04.787Z,102352.00
2023-01-29T15:23:34.017Z,102343.69
2023-01-29T15:26:05.925Z,102342.78
2023-01-29T15:28:33.935Z,102328.97
2023-01-29T15:31:05.347Z,102342.41
2023-01-29T15:33:33.437Z,102334.88
2023-01-29T15:36:07.421Z,102339.56
2023-01-29T15:38:35.095Z,102341.50
2023-01-29T15:41:03.825Z,102330.41
2023-01-29T15:43:38.016Z,102328.78
2023-01-29T15:46:14.691Z,102324.56
2023-01-29T15:48:43.598Z,102329.72
2023-01-29T15:51:15.392Z,102326.50
2023-01-29T15:53:51.663Z,102328.13
2023-01-29T15:56:21.603Z,102328.13
2023-01-29T15:58:50.100Z,102320.47
2023-01-29T16:01:17.207Z,102305.69
2023-01-29T16:03:44.284Z,102298.09
2023-01-29T16:06:11.649Z,102292.94
2023-01-29T16:08:40.123Z,102296.22
2023-01-29T16:11:08.453Z,102298.66
2023-01-29T16:13:37.173Z,102290.28
2023-01-29T16:16:19.000Z,102295.44
2023-01-29T16:18:59.563Z,102283.66
2023-01-29T16:21:36.097Z,102290.28
2023-01-29T16:24:07.791Z,102286.06
2023-01-29T16:26:37.058Z,102282.84
2023-01-29T16:29:09.390Z,102276.59
2023-01-29T16:31:37.358Z,102274.81
2023-01-29T16:34:15.945Z,102265.69
2023-01-29T16:36:47.541Z,102269.97
2023-01-29T16:39:18.655Z,102265.56
2023-01-29T16:41:45.504Z,102268.38
2023-01-29T16:44:21.193Z,102266.75
2023-01-29T16:46:51.133Z,102264.97
2023-01-29T16:49:30.321Z,102270.25
2023-01-29T16:52:15.243Z,102268.19
2023-01-29T16:54:42.758Z,102261.44
2023-01-29T16:57:13.757Z,102252.59
2023-01-29T16:59:41.851Z,102252.38
2023-01-29T17:02:17.678Z,102256.28
2023-01-29T17:04:47.605Z,102246.03
2023-01-29T17:07:21.648Z,102251.13
2023-01-29T17:09:54.765Z,102255.41
2023-01-29T17:12:24.326Z,102244.94
2023-01-29T17:15:22.811Z,102246.13
2023-01-29T17:17:51.952Z,102244.50
2023-01-29T17:20:19.591Z,102247.31
2023-01-29T17:22:47.378Z,102231.09
2023-01-29T17:25:14.935Z,102239.50
2023-01-29T17:27:45.107Z,102241.56
2023-01-29T17:30:15.838Z,102229.47
2023-01-29T17:32:50.696Z,102220.50
2023-01-29T17:35:20.297Z,102212.78
2023-01-29T17:37:48.702Z,102216.97
2023-01-29T17:40:21.822Z,102225.66
2023-01-29T17:42:49.934Z,102224.03
2023-01-29T17:45:18.309Z,102227.28
2023-01-29T17:47:45.343Z,102237.75
2023-01-29T17:50:32.028Z,102223.00
2023-01-29T17:53:00.303Z,102214.56
2023-01-29T17:55:32.431Z,102213.72
2023-01-29T17:57:59.849Z,102214.47
2023-01-29T18:00:26.678Z,102197.81
2023-01-29T18:02:54.403Z,102196.38
2023-01-29T18:05:21.178Z,102179.13
2023-01-29T18:07:51.689Z,102182.66
2023-01-29T18:10:20.679Z,102198.25
2023-01-29T18:12:48.129Z,102196.03
2023-01-29T18:15:15.927Z,102201.66
2023-01-29T18:17:43.817Z,102198.13
2023-01-29T18:20:17.520Z,102197.22
2023-01-29T18:22:44.710Z,102182.66
2023-01-29T18:25:11.622Z,102194.59
2023-01-29T18:27:38.519Z,102175.94
2023-01-29T18:30:05.527Z,102182.03
2023-01-29T18:32:32.618Z,102176.03
2023-01-29T18:35:00.157Z,102175.44
2023-01-29T18:37:29.365Z,102167.63
2023-01-29T18:39:57.522Z,102171.31
2023-01-29T18:42:25.530Z,102172.91
2023-01-29T18:44:52.339Z,102154.22
2023-01-29T18:47:20.076Z,102154.72
2023-01-29T18:49:46.999Z,102154.22
2023-01-29T18:52:16.388Z,102148.91
2023-01-29T18:54:43.781Z,102135.38
2023-01-29T18:57:14.159Z,102147.13
2023-01-29T18:59:43.056Z,102142.13
2023-01-29T19:02:16.296Z,102141.84
2023-01-29T19:04:43.292Z,102149.94
2023-01-29T19:07:12.604Z,102138.59
2023-01-29T19:09:45.351Z,102133.06
2023-01-29T19:12:11.926Z,102123.69
2023-01-29T19:14:38.963Z,102119.91
2023-01-29T19:17:06.575Z,102125.81
2023-01-29T19:19:33.934Z,102120.19
2023-01-29T19:22:01.458Z,102106.03
2023-01-29T19:24:28.872Z,102102.00
2023-01-29T19:26:55.777Z,102102.94
2023-01-29T19:29:22.714Z,102095.16
2023-01-29T19:31:50.699Z,102090.78
2023-01-29T19:34:17.612Z,102074.53
2023-01-29T19:36:44.613Z,102070.25
2023-01-29T19:39:11.618Z,102058.31
2023-01-29T19:41:39.069Z,102054.97
2023-01-29T19:44:05.930Z,102053.56
2023-01-29T19:46:32.891Z,102058.72
2023-01-29T19:48:59.789Z,102059.38
2023-01-29T19:51:29.241Z,102049.78
2023-01-29T19:53:56.166Z,102045.47
2023-01-29T19:56:23.066Z,102046.63
2023-01-29T19:58:57.183Z,102032.00
2023-01-29T20:01:29.693Z,102036.81
2023-01-29T20:03:57.645Z,102025.59
2023-01-29T20:06:25.597Z,102020.03
2023-01-29T20:08:53.650Z,102010.41
2023-01-29T20:11:21.548Z,102005.66
2023-01-29T20:13:49.779Z,102000.09
2023-01-29T20:16:18.448Z,102003.44
2023-01-29T20:18:45.605Z,102001.22
2023-01-29T20:21:14.039Z,101997.78
2023-01-29T20:23:41.268Z,101988.59
2023-01-29T20:26:09.615Z,101979.09
2023-01-29T20:28:36.829Z,101969.78
2023-01-29T20:31:04.860Z,101956.97
2023-01-29T20:33:32.209Z,101955.25
2023-01-29T20:36:00.158Z,101956.97
2023-01-29T20:38:30.422Z,101960.50
2023-01-29T20:41:07.824Z,101958.81
2023-01-29T20:43:34.991Z,101950.31
2023-01-29T20:46:02.340Z,101953.81
2023-01-29T20:48:29.709Z,101960.88
2023-01-29T20:50:57.015Z,101964.25
2023-01-29T20:53:23.887Z,101956.06
2023-01-29T20:55:51.832Z,101964.41
2023-01-29T20:58:19.358Z,101964.81
2023-01-29T21:00:47.695Z,101955.59
2023-01-29T21:03:14.968Z,101974.72
2023-01-29T21:05:41.601Z,101984.88
2023-01-29T21:08:09.017Z,101968.75
2023-01-29T21:10:35.838Z,101964.53
2023-01-29T21:13:02.485Z,101961.00
2023-01-29T21:15:29.778Z,101950.91
2023-01-29T21:17:56.986Z,101947.94
2023-01-29T21:20:24.047Z,101923.78
2023-01-29T21:22:50.998Z,101916.53
2023-01-29T21:25:20.711Z,101923.78
2023-01-29T21:27:48.455Z,101935.47
2023-01-29T21:30:16.438Z,101943.28
2023-01-29T21:32:44.157Z,101954.75
2023-01-29T21:35:10.830Z,101963.28
2023-01-29T21:37:40.281Z,101959.06
2023-01-29T21:40:08.705Z,101956.75
2023-01-29T21:42:54.120Z,101973.09
2023-01-29T21:45:20.867Z,101981.03
2023-01-29T21:47:48.529Z,101984.50
2023-01-29T21:50:16.279Z,101993.13
2023-01-29T21:52:44.346Z,101992.88
2023-01-29T21:55:12.366Z,101987.97
2023-01-29T21:57:39.374Z,101985.25
2023-01-29T22:00:06.851Z,101963.06
2023-01-29T22:02:33.696Z,101955.47
2023-01-29T22:05:17.635Z,101957.13
2023-01-29T22:07:46.663Z,101946.81
2023-01-29T22:10:14.610Z,101959.06
2023-01-29T22:12:42.239Z,101937.53
2023-01-29T22:15:09.332Z,101948.06
2023-01-29T22:17:36.241Z,101934.84
2023-01-29T22:20:03.651Z,101931.56
2023-01-29T22:22:30.972Z,101935.97
2023-01-29T22:24:59.039Z,101923.16
2023-01-29T22:27:26.050Z,101913.91
2023-01-29T22:29:52.738Z,101920.09
2023-01-29T22:32:19.756Z,101922.09
2023-01-29T22:34:47.152Z,101930.28
2023-01-29T22:37:14.369Z,101936.22
2023-01-29T22:39:43.295Z,101921.63
2023-01-29T22:42:10.279Z,101932.06
2023-01-29T22:44:37.917Z,101914.94
2023-01-29T22:47:04.801Z,101899.31
2023-01-29T22:49:32.159Z,101881.50
2023-01-29T22:52:10.879Z,101877.06
2023-01-29T22:54:42.249Z,101863.31
2023-01-29T22:57:13.075Z,101826.50
2023-01-29T22:59:40.390Z,101829.09
2023-01-29T23:02:08.497Z,101810.09
2023-01-29T23:04:35.205Z,101783.28
2023-01-29T23:07:02.678Z,101781.63
2023-01-29T23:09:29.729Z,101770.31
2023-01-29T23:11:57.002Z,101759.50
2023-01-29T23:14:24.222Z,101766.81
2023-01-29T23:16:50.970Z,101789.22
2023-01-29T23:19:18.119Z,101812.59
2023-01-29T23:21:44.690Z,101794.50
2023-01-29T23:24:11.777Z,101804.72
2023-01-29T23:26:57.428Z,101793.84
2023-01-29T23:29:24.406Z,101805.16
2023-01-29T23:31:51.744Z,101788.03
2023-01-29T23:34:18.376Z,101776.81
2023-01-29T23:36:45.216Z,101772.31
2023-01-29T23:39:12.580Z,101762.09
2023-01-29T23:41:40.083Z,101768.94
2023-01-29T23:44:06.959Z,101764.66
2023-01-29T23:46:33.963Z,101756.38
2023-01-29T23:49:01.083Z,101743.56
2023-01-29T23:51:28.964Z,101724.78
2023-01-29T23:53:55.993Z,101726.41
2023-01-29T23:56:22.817Z,101730.94
2023-01-29T23:58:56.242Z,101760.91
